createdAt,value
2023-02-24T00:04:09.048Z,949.58
2023-02-24T00:09:10.376Z,949.6
2023-02-24T00:14:11.609Z,949.56
2023-02-24T00:19:13.100Z,949.55
2023-02-24T00:24:15.060Z,949.53
2023-02-24T00:29:17.072Z,949.42
2023-02-24T00:34:19.020Z,949.35
2023-02-24T00:39:20.680Z,949.32
2023-02-24T00:44:21.954Z,949.34
2023-02-24T00:49:23.831Z,949.34
2023-02-24T00:54:25.410Z,949.36
2023-02-24T00:59:27.178Z,949.32
2023-02-24T01:04:28.622Z,949.25
2023-02-24T01:09:30.407Z,949.22
2023-02-24T01:14:32.174Z,949.14
2023-02-24T01:19:33.427Z,949.08
2023-02-24T01:24:35.385Z,949.09
2023-02-24T01:29:36.927Z,949.03
2023-02-24T01:34:38.949Z,949.01
2023-02-24T01:39:41.117Z,948.96
2023-02-24T01:44:42.433Z,948.93
2023-02-24T01:49:43.616Z,948.93
2023-02-24T01:54:45.639Z,948.83
2023-02-24T01:59:55.303Z,948.82
2023-02-24T02:04:48.990Z,948.72
2023-02-24T02:34:58.191Z,948.5
2023-02-24T02:45:01.896Z,948.57
2023-02-24T03:00:07.555Z,948.48
2023-02-24T03:05:09.532Z,948.51
2023-02-24T03:15:12.896Z,948.46
2023-02-24T03:35:20.522Z,948.44
2023-02-24T03:40:22.608Z,948.39
2023-02-24T03:45:24.616Z,948.38
2023-02-24T03:50:26.432Z,948.32
2023-02-24T03:55:28.259Z,948.35
2023-02-24T04:00:29.517Z,948.3
2023-02-24T04:05:31.733Z,948.33
2023-02-24T04:10:33.838Z,948.25
2023-02-24T04:15:35.299Z,948.17
2023-02-24T04:20:37.130Z,948.13
2023-02-24T04:25:38.969Z,948.04
2023-02-24T04:30:40.614Z,948.05
2023-02-24T04:35:42.009Z,947.96
2023-02-24T04:40:51.572Z,947.94
2023-02-24T04:45:45.039Z,947.85
2023-02-24T04:50:46.752Z,947.8
2023-02-24T04:55:48.882Z,947.74
2023-02-24T05:00:50.187Z,947.61
2023-02-24T05:05:52.337Z,947.55
2023-02-24T05:10:54.231Z,947.47
2023-02-24T05:15:56.406Z,947.4
2023-02-24T05:20:59.177Z,947.37
2023-02-24T05:25:59.641Z,947.34
2023-02-24T05:31:01.669Z,947.3
2023-02-24T05:36:03.051Z,947.22
2023-02-24T05:41:05.048Z,947.22
2023-02-24T05:46:06.905Z,947.17
2023-02-24T05:51:09.135Z,947.14
2023-02-24T05:56:10.935Z,947.11
2023-02-24T06:01:12.379Z,947.07
2023-02-24T06:06:14.355Z,947.09
2023-02-24T06:11:15.727Z,947.04
2023-02-24T06:16:17.582Z,947.03
2023-02-24T06:21:19.148Z,946.98
2023-02-24T06:26:20.512Z,947.05
2023-02-24T06:31:22.352Z,947.15
2023-02-24T06:36:23.683Z,947.1
2023-02-24T06:41:25.246Z,947.12
2023-02-24T06:46:26.731Z,947.13
2023-02-24T06:51:28.143Z,947.18
2023-02-24T06:56:32.079Z,947.16
2023-02-24T07:01:31.540Z,947.22
2023-02-24T07:06:32.744Z,947.16
2023-02-24T07:11:40.519Z,947.08
2023-02-24T07:16:42.571Z,947.09
2023-02-24T07:21:44.385Z,947.06
2023-02-24T07:26:46.251Z,947.07
2023-02-24T07:31:48.475Z,947.03
2023-02-24T07:36:49.908Z,947.03
2023-02-24T07:41:51.101Z,947.02
2023-02-24T07:46:52.758Z,947.01
2023-02-24T07:51:54.704Z,946.96
2023-02-24T07:56:57.006Z,946.92
2023-02-24T08:01:58.385Z,946.85
2023-02-24T08:06:59.637Z,946.8
2023-02-24T08:12:01.692Z,946.69
2023-02-24T08:17:03.523Z,946.7
2023-02-24T08:22:04.722Z,946.58
2023-02-24T08:27:06.165Z,946.49
2023-02-24T08:32:07.460Z,946.46
2023-02-24T08:37:08.834Z,946.36
2023-02-24T08:42:10.511Z,946.31
2023-02-24T08:47:12.196Z,946.27
2023-02-24T08:52:14.049Z,946.22
2023-02-24T08:57:16.046Z,946.18
2023-02-24T09:02:17.500Z,946.15
2023-02-24T09:07:19.018Z,946.15
2023-02-24T09:12:28.452Z,946.1
2023-02-24T09:17:21.747Z,946.01
2023-02-24T09:22:23.913Z,946.02
2023-02-24T09:27:25.703Z,945.93
2023-02-24T09:32:27.515Z,945.92
2023-02-24T09:37:29.318Z,945.9
2023-02-24T09:42:30.978Z,945.92
2023-02-24T09:47:32.575Z,945.87
2023-02-24T09:52:34.339Z,945.76
2023-02-24T09:57:45.466Z,945.74
2023-02-24T10:02:38.421Z,945.69
2023-02-24T10:07:40.249Z,945.55
2023-02-24T10:12:41.782Z,945.35
2023-02-24T10:17:43.028Z,945.27
2023-02-24T10:22:44.998Z,945.19
2023-02-24T10:27:46.766Z,945.17
2023-02-24T10:32:48.188Z,945.12
2023-02-24T10:37:49.423Z,945.05
2023-02-24T10:42:50.757Z,944.98
2023-02-24T10:47:52.406Z,944.92
2023-02-24T10:52:53.940Z,944.79
2023-02-24T10:57:59.094Z,944.69
2023-02-24T11:02:56.749Z,944.66
2023-02-24T11:07:58.900Z,944.63
2023-02-24T11:13:09.106Z,944.57
2023-02-24T11:18:02.940Z,944.43
2023-02-24T11:23:04.797Z,944.48
2023-02-24T11:28:06.647Z,944.36
2023-02-24T11:33:08.309Z,944.28
2023-02-24T11:38:09.652Z,944.22
2023-02-24T11:43:11.692Z,944.04
2023-02-24T11:48:13.345Z,943.94
2023-02-24T11:53:14.917Z,943.87
2023-02-24T11:58:16.453Z,943.75
2023-02-24T12:03:18.047Z,943.65
2023-02-24T12:08:19.846Z,943.57
2023-02-24T12:13:22.128Z,943.52
2023-02-24T12:18:23.323Z,943.48
2023-02-24T12:23:25.057Z,943.39
2023-02-24T12:28:26.340Z,943.27
2023-02-24T12:33:28.190Z,943.21
2023-02-24T12:38:29.879Z,943.17
2023-02-24T12:43:31.260Z,943.03
2023-02-24T12:48:33.366Z,942.94
2023-02-24T12:53:34.791Z,942.9
2023-02-24T12:58:36.962Z,942.84
2023-02-24T13:03:38.421Z,942.82
2023-02-24T13:08:40.291Z,942.69
2023-02-24T13:13:42.191Z,942.66
2023-02-24T13:18:43.609Z,942.54
2023-02-24T13:23:45.294Z,942.58
2023-02-24T13:28:46.914Z,942.55
2023-02-24T13:33:49.029Z,942.44
2023-02-24T13:38:50.388Z,942.42
2023-02-24T13:43:51.960Z,942.38
2023-02-24T13:48:54.192Z,942.3
2023-02-24T13:53:57.518Z,942.3
2023-02-24T13:58:56.878Z,942.28
2023-02-24T14:03:58.709Z,942.21
2023-02-24T14:09:00.791Z,942.23
2023-02-24T14:14:03.030Z,942.17
2023-02-24T14:19:04.367Z,942.08
2023-02-24T14:24:05.761Z,942
2023-02-24T14:29:07.645Z,941.97
2023-02-24T14:34:09.114Z,941.94
2023-02-24T14:39:11.239Z,941.93
2023-02-24T14:44:13.516Z,941.77
2023-02-24T14:49:15.134Z,941.78
2023-02-24T14:54:16.825Z,941.73
2023-02-24T14:59:18.162Z,941.67
2023-02-24T15:04:20.236Z,941.63
2023-02-24T15:09:21.838Z,941.53
2023-02-24T15:14:23.497Z,941.55
2023-02-24T15:19:25.334Z,941.61
2023-02-24T15:24:27.516Z,941.57
2023-02-24T15:29:29.232Z,941.56
2023-02-24T15:34:30.847Z,941.25
2023-02-24T15:39:32.310Z,941.19
2023-02-24T15:44:33.852Z,941.3
2023-02-24T15:49:35.673Z,941.39
2023-02-24T15:54:37.465Z,941.12
2023-02-24T15:59:39.083Z,941.05
2023-02-24T16:04:40.891Z,941.06
2023-02-24T16:09:42.199Z,940.96
2023-02-24T16:14:43.537Z,941
2023-02-24T16:19:44.827Z,940.84
2023-02-24T16:24:46.530Z,940.72
2023-02-24T16:29:47.766Z,940.69
2023-02-24T16:49:55.572Z,940.68
2023-02-24T17:35:10.994Z,940.69
2023-02-24T17:40:12.335Z,940.61
2023-02-24T17:50:15.242Z,940.45
2023-02-24T17:55:16.751Z,940.52
2023-02-24T18:05:20.122Z,940.46
2023-02-24T18:10:22.009Z,940.33
2023-02-24T18:15:23.839Z,940.28
2023-02-24T18:20:25.445Z,940.07
2023-02-24T18:25:27.430Z,940
2023-02-24T18:30:29.609Z,939.85
2023-02-24T18:35:31.498Z,939.71
2023-02-24T18:40:33.379Z,939.7
2023-02-24T18:45:35.493Z,939.63
2023-02-24T18:50:36.907Z,939.64
2023-02-24T19:15:45.994Z,939.25
2023-02-24T19:20:46.946Z,939.2
2023-02-24T19:25:49.107Z,939.15
2023-02-24T19:30:51.146Z,939.19
2023-02-24T19:35:53.340Z,939.24
2023-02-24T19:40:54.906Z,939.21
2023-02-24T19:45:56.846Z,939.32
2023-02-24T19:50:58.690Z,939.48
2023-02-24T19:56:00.222Z,939.67
2023-02-24T20:01:02.333Z,939.74
2023-02-24T20:06:03.986Z,939.69
2023-02-24T20:11:06.055Z,939.54
2023-02-24T20:16:08.392Z,939.77
2023-02-24T20:21:09.746Z,939.56
2023-02-24T20:26:11.122Z,939.55
2023-02-24T20:31:13.022Z,939.42
2023-02-24T20:36:14.386Z,939.43
2023-02-24T20:41:16.401Z,939.5
2023-02-24T20:46:18.337Z,939.49
2023-02-24T20:51:20.186Z,939.42
2023-02-24T20:56:21.826Z,939.34
2023-02-24T21:01:23.692Z,939.41
2023-02-24T21:06:25.263Z,939.4
2023-02-24T21:11:26.282Z,939.42
2023-02-24T21:16:28.359Z,939.44
2023-02-24T21:21:30.019Z,939.61
2023-02-24T21:26:31.688Z,939.72
2023-02-24T21:31:33.990Z,939.5
2023-02-24T21:36:35.408Z,939.5
2023-02-24T21:41:36.929Z,939.59
2023-02-24T21:46:38.832Z,939.6
2023-02-24T21:51:40.204Z,939.68
2023-02-24T21:56:42.330Z,939.54
2023-02-24T22:01:52.276Z,939.51
2023-02-24T22:06:46.207Z,939.3
2023-02-24T22:11:48.304Z,939.23
2023-02-24T22:16:50.433Z,939.11
2023-02-24T22:21:52.215Z,939.02
2023-02-24T22:26:53.895Z,939
2023-02-24T22:31:55.713Z,938.94
2023-02-24T22:36:57.371Z,939.03
2023-02-24T22:41:59.447Z,939.15
2023-02-24T22:47:01.165Z,939.23
2023-02-24T22:52:02.786Z,939.17
2023-02-24T22:57:04.601Z,939.11
2023-02-24T23:17:12.134Z,939.12
2023-02-24T23:22:13.343Z,939.32
2023-02-24T23:27:14.957Z,939.77
2023-02-24T23:32:16.760Z,940.2
2023-02-24T23:37:18.146Z,940.26
2023-02-24T23:42:19.446Z,940.33
2023-02-24T23:47:20.790Z,940.33
2023-02-24T23:52:21.969Z,940.44
2023-02-24T23:52:28.289Z,940.45
2023-02-24T23:57:30.343Z,940.52
